createdAt,value
2022-12-04T00:01:28.723Z,99757.89
2022-12-04T00:03:59.690Z,99762.09
2022-12-04T00:06:28.568Z,99770.94
2022-12-04T00:08:57.090Z,99766.14
2022-12-04T00:11:28.673Z,99770.18
2022-12-04T00:14:02.944Z,99768.29
2022-12-04T00:16:33.268Z,99772.33
2022-12-04T00:19:01.490Z,99778.08
2022-12-04T00:21:29.594Z,99780.36
2022-12-04T00:23:57.889Z,99783.36
2022-12-04T00:26:27.795Z,99782.79
2022-12-04T00:28:57.082Z,99776.81
2022-12-04T00:31:27.767Z,99770.86
2022-12-04T00:33:56.579Z,99768.09
2022-12-04T00:36:26.842Z,99765.48
2022-12-04T00:38:55.994Z,99766.55
2022-12-04T00:41:26.222Z,99763.91
2022-12-04T00:43:54.659Z,99769.98
2022-12-04T00:46:23.096Z,99769.58
2022-12-04T00:48:52.001Z,99771.86
2022-12-04T00:51:22.952Z,99764.52
2022-12-04T00:53:52.489Z,99759.69
2022-12-04T00:56:24.565Z,99754.26
2022-12-04T00:58:54.311Z,99753.39
2022-12-04T01:01:23.831Z,99752.52
2022-12-04T01:03:53.706Z,99744.95
2022-12-04T01:06:30.705Z,99741.52
2022-12-04T01:09:00.580Z,99736.62
2022-12-04T01:11:30.218Z,99736.88
2022-12-04T01:13:59.738Z,99736.81
2022-12-04T01:16:32.664Z,99738.35
2022-12-04T01:19:01.626Z,99742.45
2022-12-04T01:21:29.943Z,99744.33
2022-12-04T01:23:59.816Z,99743.65
2022-12-04T01:26:28.779Z,99751.12
2022-12-04T01:28:57.381Z,99752.09
2022-12-04T01:31:25.927Z,99747.52
2022-12-04T01:33:54.365Z,99741.82
2022-12-04T01:36:26.771Z,99737.58
2022-12-04T01:38:55.999Z,99739.73
2022-12-04T01:41:27.768Z,99733.80
2022-12-04T01:44:19.717Z,99729.52
2022-12-04T01:46:56.464Z,99723.89
2022-12-04T01:49:45.429Z,99721.96
2022-12-04T01:52:26.394Z,99713.89
2022-12-04T01:54:59.309Z,99717.80
2022-12-04T01:57:32.164Z,99712.28
2022-12-04T02:00:13.538Z,99709.14
2022-12-04T02:03:15.856Z,99703.16
2022-12-04T02:05:44.351Z,99701.17
2022-12-04T02:08:12.910Z,99712.80
2022-12-04T02:11:08.671Z,99717.34
2022-12-04T02:13:42.630Z,99719.77
2022-12-04T02:16:22.581Z,99723.45
2022-12-04T02:19:06.590Z,99727.11
2022-12-04T02:21:40.718Z,99730.56
2022-12-04T02:24:21.094Z,99728.11
2022-12-04T02:26:58.973Z,99722.34
2022-12-04T02:29:37.538Z,99720.31
2022-12-04T02:32:45.137Z,99718.69
2022-12-04T02:35:21.746Z,99722.52
2022-12-04T02:37:56.936Z,99728.23
2022-12-04T02:40:27.017Z,99735.23
2022-12-04T02:43:10.641Z,99733.79
2022-12-04T02:45:51.493Z,99734.27
2022-12-04T02:48:22.060Z,99731.84
2022-12-04T02:50:55.010Z,99727.48
2022-12-04T02:53:36.515Z,99728.52
2022-12-04T02:56:20.115Z,99722.02
2022-12-04T02:58:59.042Z,99722.84
2022-12-04T03:01:33.221Z,99718.36
2022-12-04T03:04:11.645Z,99717.92
2022-12-04T03:06:44.318Z,99713.73
2022-12-04T03:09:20.196Z,99720.56
2022-12-04T03:12:01.863Z,99722.54
2022-12-04T03:14:35.241Z,99722.27
2022-12-04T03:17:14.924Z,99712.02
2022-12-04T03:19:51.514Z,99715.47
2022-12-04T03:22:22.253Z,99716.40
2022-12-04T03:24:52.927Z,99718.56
2022-12-04T03:28:13.904Z,99718.92
2022-12-04T03:30:51.881Z,99716.94
2022-12-04T03:33:38.990Z,99718.91
2022-12-04T03:36:12.360Z,99721.13
2022-12-04T03:39:07.468Z,99723.77
2022-12-04T03:41:53.988Z,99723.46
2022-12-04T03:44:44.137Z,99730.33
2022-12-04T03:47:16.716Z,99727.08
2022-12-04T03:50:11.738Z,99722.73
2022-12-04T03:52:58.462Z,99725.95
2022-12-04T03:55:36.385Z,99732.48
2022-12-04T03:58:10.317Z,99731.91
2022-12-04T04:00:43.130Z,99726.65
2022-12-04T04:03:15.948Z,99725.51
2022-12-04T04:05:47.974Z,99725.80
2022-12-04T04:08:26.575Z,99730.46
2022-12-04T04:11:14.075Z,99732.91
2022-12-04T04:14:16.266Z,99733.52
2022-12-04T04:17:12.003Z,99735.15
2022-12-04T04:20:02.027Z,99727.91
2022-12-04T04:22:53.011Z,99726.43
2022-12-04T04:25:28.040Z,99720.38
2022-12-04T04:27:58.612Z,99712.51
2022-12-04T04:30:29.839Z,99712.10
2022-12-04T04:33:06.588Z,99712.29
2022-12-04T04:35:53.803Z,99710.60
2022-12-04T04:38:31.880Z,99713.13
2022-12-04T04:41:11.233Z,99717.55
2022-12-04T04:44:19.880Z,99714.27
2022-12-04T04:46:53.987Z,99716.61
2022-12-04T04:49:26.012Z,99721.91
2022-12-04T04:51:55.372Z,99727.61
2022-12-04T04:54:25.432Z,99725.23
2022-12-04T04:56:53.568Z,99717.98
2022-12-04T04:59:24.296Z,99720.17
2022-12-04T05:01:52.862Z,99720.87
2022-12-04T05:04:21.079Z,99719.73
2022-12-04T05:06:49.567Z,99713.88
2022-12-04T05:09:17.888Z,99710.04
2022-12-04T05:11:45.960Z,99715.33
2022-12-04T05:14:14.093Z,99723.73
2022-12-04T05:16:42.563Z,99723.36
2022-12-04T05:19:28.994Z,99716.64
2022-12-04T05:21:57.559Z,99710.63
2022-12-04T05:24:25.686Z,99710.73
2022-12-04T05:26:53.790Z,99706.31
2022-12-04T05:29:22.252Z,99706.14
2022-12-04T05:31:50.402Z,99701.65
2022-12-04T05:34:18.826Z,99703.88
2022-12-04T05:36:47.015Z,99698.07
2022-12-04T05:39:15.029Z,99702.91
2022-12-04T05:41:43.353Z,99701.71
2022-12-04T05:44:11.681Z,99698.61
2022-12-04T05:46:39.890Z,99699.09
2022-12-04T05:49:07.988Z,99700.77
2022-12-04T05:51:36.342Z,99700.16
2022-12-04T05:54:04.507Z,99699.91
2022-12-04T05:56:32.710Z,99698.48
2022-12-04T05:59:00.998Z,99694.77
2022-12-04T06:01:29.135Z,99697.08
2022-12-04T06:03:57.268Z,99698.21
2022-12-04T06:06:26.637Z,99700.27
2022-12-04T06:08:57.856Z,99702.36
2022-12-04T06:11:29.711Z,99704.09
2022-12-04T06:13:59.881Z,99704.34
2022-12-04T06:16:31.566Z,99703.97
2022-12-04T06:19:02.571Z,99702.36
2022-12-04T06:21:31.931Z,99707.03
2022-12-04T06:24:00.082Z,99708.34
2022-12-04T06:26:28.726Z,99712.15
2022-12-04T06:28:57.991Z,99713.20
2022-12-04T06:31:28.410Z,99717.66
2022-12-04T06:33:57.995Z,99715.98
2022-12-04T06:36:26.779Z,99720.29
2022-12-04T06:38:56.602Z,99720.14
2022-12-04T06:41:26.155Z,99721.48
2022-12-04T06:43:55.022Z,99717.45
2022-12-04T06:46:26.161Z,99715.02
2022-12-04T06:48:56.416Z,99714.61
2022-12-04T06:51:36.730Z,99714.96
2022-12-04T06:54:04.990Z,99716.40
2022-12-04T06:56:34.572Z,99725.52
2022-12-04T06:59:04.353Z,99728.92
2022-12-04T07:01:34.027Z,99728.15
2022-12-04T07:04:06.715Z,99737.30
2022-12-04T07:06:36.679Z,99740.20
2022-12-04T07:09:08.106Z,99741.93
2022-12-04T07:11:37.651Z,99744.34
2022-12-04T07:14:06.207Z,99746.70
2022-12-04T07:16:40.334Z,99739.34
2022-12-04T07:19:14.087Z,99736.25
2022-12-04T07:21:43.261Z,99740.56
2022-12-04T07:24:16.777Z,99742.77
2022-12-04T07:26:45.303Z,99741.51
2022-12-04T07:29:14.017Z,99747.66
2022-12-04T07:31:42.407Z,99748.02
2022-12-04T07:34:10.705Z,99749.28
2022-12-04T07:36:40.130Z,99750.08
2022-12-04T07:39:08.431Z,99746.02
2022-12-04T07:41:36.625Z,99746.64
2022-12-04T07:44:07.046Z,99748.64
2022-12-04T07:46:36.206Z,99752.99
2022-12-04T07:49:04.474Z,99753.76
2022-12-04T07:51:32.849Z,99751.17
2022-12-04T07:54:04.076Z,99754.14
2022-12-04T07:56:33.588Z,99758.30
2022-12-04T07:59:02.337Z,99757.56
2022-12-04T08:01:32.036Z,99762.27
2022-12-04T08:04:03.094Z,99762.85
2022-12-04T08:06:33.652Z,99759.06
2022-12-04T08:09:07.727Z,99756.86
2022-12-04T08:11:38.675Z,99753.91
2022-12-04T08:14:08.969Z,99757.58
2022-12-04T08:16:37.788Z,99763.27
2022-12-04T08:19:06.321Z,99760.02
2022-12-04T08:21:34.749Z,99760.13
2022-12-04T08:24:02.925Z,99759.00
2022-12-04T08:26:33.756Z,99759.95
2022-12-04T08:29:02.751Z,99762.10
2022-12-04T08:31:33.907Z,99767.45
2022-12-04T08:34:05.525Z,99764.16
2022-12-04T08:36:34.635Z,99767.92
2022-12-04T08:39:02.962Z,99772.48
2022-12-04T08:41:31.454Z,99771.02
2022-12-04T08:44:01.137Z,99776.09
2022-12-04T08:46:29.808Z,99778.30
2022-12-04T08:48:58.298Z,99783.44
2022-12-04T08:51:29.526Z,99777.09
2022-12-04T08:54:06.089Z,99774.48
2022-12-04T08:56:35.876Z,99774.61
2022-12-04T08:59:04.839Z,99769.33
2022-12-04T09:01:33.189Z,99766.73
2022-12-04T09:04:01.646Z,99766.29
2022-12-04T09:06:30.148Z,99761.28
2022-12-04T09:08:58.613Z,99763.01
2022-12-04T09:11:28.429Z,99762.23
2022-12-04T09:13:56.881Z,99757.18
2022-12-04T09:16:26.180Z,99759.88
2022-12-04T09:18:55.656Z,99757.10
2022-12-04T09:21:25.274Z,99759.46
2022-12-04T09:23:53.663Z,99757.81
2022-12-04T09:26:23.735Z,99755.11
2022-12-04T09:28:52.872Z,99752.58
2022-12-04T09:31:21.871Z,99751.57
2022-12-04T09:33:50.827Z,99753.07
2022-12-04T09:36:19.142Z,99755.30
2022-12-04T09:38:50.278Z,99750.80
2022-12-04T09:41:33.753Z,99753.36
2022-12-04T09:44:04.914Z,99744.66
2022-12-04T09:46:40.491Z,99742.20
2022-12-04T09:49:26.509Z,99747.47
2022-12-04T09:52:00.426Z,99746.07
2022-12-04T09:54:38.739Z,99735.84
2022-12-04T09:57:37.273Z,99730.85
2022-12-04T10:00:13.309Z,99729.44
2022-12-04T10:02:44.989Z,99724.64
2022-12-04T10:05:21.861Z,99723.73
2022-12-04T10:08:00.344Z,99724.77
2022-12-04T10:10:45.766Z,99716.42
2022-12-04T10:13:35.685Z,99711.38
2022-12-04T10:16:22.369Z,99711.85
2022-12-04T10:19:08.768Z,99710.30
2022-12-04T10:21:52.047Z,99706.27
2022-12-04T10:24:34.817Z,99707.45
2022-12-04T10:27:12.452Z,99706.30
2022-12-04T10:29:44.929Z,99709.27
2022-12-04T10:32:23.596Z,99710.31
2022-12-04T10:34:54.877Z,99708.42
2022-12-04T10:37:23.816Z,99711.02
2022-12-04T10:40:02.787Z,99715.31
2022-12-04T10:42:53.757Z,99716.59
2022-12-04T10:45:23.257Z,99711.32
2022-12-04T10:47:53.378Z,99708.52
2022-12-04T10:50:24.697Z,99711.48
2022-12-04T10:52:56.508Z,99713.45
2022-12-04T10:55:38.887Z,99715.65
2022-12-04T10:58:20.687Z,99715.30
2022-12-04T11:01:11.595Z,99721.83
2022-12-04T11:03:41.520Z,99720.62
2022-12-04T11:06:10.702Z,99716.85
2022-12-04T11:08:41.876Z,99715.61
2022-12-04T11:11:13.502Z,99715.11
2022-12-04T11:13:42.498Z,99716.75
2022-12-04T11:16:35.727Z,99711.61
2022-12-04T11:19:04.353Z,99707.68
2022-12-04T11:21:32.814Z,99705.14
2022-12-04T11:24:01.078Z,99698.25
2022-12-04T11:26:37.486Z,99704.02
2022-12-04T11:29:07.558Z,99703.69
2022-12-04T11:31:35.918Z,99706.05
2022-12-04T11:34:20.137Z,99697.41
2022-12-04T11:36:57.299Z,99697.67
2022-12-04T11:39:36.932Z,99699.95
2022-12-04T11:42:17.317Z,99698.73
2022-12-04T11:44:57.388Z,99700.65
2022-12-04T11:47:32.222Z,99699.02
2022-12-04T11:50:34.750Z,99694.20
2022-12-04T11:53:21.374Z,99690.19
2022-12-04T11:55:58.614Z,99681.06
2022-12-04T11:58:54.943Z,99674.96
2022-12-04T12:02:14.236Z,99675.84
2022-12-04T12:04:53.534Z,99677.19
2022-12-04T12:08:02.198Z,99676.06
2022-12-04T12:10:48.295Z,99678.27
2022-12-04T12:13:38.279Z,99693.13
2022-12-04T12:16:18.392Z,99690.42
2022-12-04T12:19:11.794Z,99688.02
2022-12-04T12:21:54.087Z,99684.88
2022-12-04T12:24:29.573Z,99677.45
2022-12-04T12:27:13.662Z,99681.77
2022-12-04T12:30:00.679Z,99681.88
2022-12-04T12:32:46.739Z,99686.09
2022-12-04T12:35:53.872Z,99680.75
2022-12-04T12:38:31.180Z,99676.84
2022-12-04T12:41:06.271Z,99681.35
2022-12-04T12:43:42.004Z,99681.28
2022-12-04T12:46:19.465Z,99684.27
2022-12-04T12:48:56.594Z,99681.04
2022-12-04T12:51:47.434Z,99675.50
2022-12-04T12:54:37.068Z,99674.23
2022-12-04T12:57:25.646Z,99669.04
2022-12-04T13:00:00.113Z,99662.99
2022-12-04T13:02:46.260Z,99659.66
2022-12-04T13:05:21.745Z,99661.97
2022-12-04T13:08:18.471Z,99662.58
2022-12-04T13:11:01.592Z,99660.70
2022-12-04T13:13:43.157Z,99659.63
2022-12-04T13:16:19.809Z,99656.89
2022-12-04T13:19:15.909Z,99657.80
2022-12-04T13:22:05.542Z,99667.85
2022-12-04T13:24:59.589Z,99671.70
2022-12-04T13:27:52.267Z,99665.71
2022-12-04T13:30:36.821Z,99656.52
2022-12-04T13:33:34.293Z,99661.66
2022-12-04T13:36:15.395Z,99659.73
2022-12-04T13:38:46.361Z,99660.80
2022-12-04T13:41:21.776Z,99663.04
2022-12-04T13:43:52.268Z,99664.75
2022-12-04T13:46:34.240Z,99668.05
2022-12-04T13:49:13.593Z,99671.15
2022-12-04T13:51:43.373Z,99671.92
2022-12-04T13:54:11.993Z,99675.69
2022-12-04T13:56:42.592Z,99676.48
2022-12-04T13:59:29.639Z,99678.51
2022-12-04T14:02:06.406Z,99677.33
2022-12-04T14:04:39.427Z,99674.11
2022-12-04T14:07:08.063Z,99670.25
2022-12-04T14:09:43.243Z,99670.36
2022-12-04T14:12:17.733Z,99681.24
2022-12-04T14:14:54.667Z,99681.73
2022-12-04T14:17:32.998Z,99685.69
2022-12-04T14:20:08.266Z,99679.86
2022-12-04T14:22:37.431Z,99677.92
2022-12-04T14:25:24.435Z,99679.53
2022-12-04T14:27:53.762Z,99681.23
2022-12-04T14:30:36.731Z,99677.28
2022-12-04T14:33:24.248Z,99675.05
2022-12-04T14:36:17.130Z,99681.64
2022-12-04T14:38:49.013Z,99683.17
2022-12-04T14:41:25.341Z,99684.92
2022-12-04T14:43:54.191Z,99687.67
2022-12-04T14:46:28.461Z,99688.28
2022-12-04T14:49:08.126Z,99687.92
2022-12-04T14:51:42.026Z,99690.08
2022-12-04T14:54:37.537Z,99695.34
2022-12-04T14:57:21.452Z,99694.03
2022-12-04T14:59:54.974Z,99693.45
2022-12-04T15:02:41.001Z,99683.39
2022-12-04T15:05:19.679Z,99681.61
2022-12-04T15:07:52.829Z,99687.92
2022-12-04T15:10:43.715Z,99683.86
2022-12-04T15:13:18.576Z,99679.09
2022-12-04T15:15:50.159Z,99679.14
2022-12-04T15:18:21.649Z,99686.63
2022-12-04T15:20:52.019Z,99688.63
2022-12-04T15:23:30.439Z,99694.52
2022-12-04T15:26:02.225Z,99691.11
2022-12-04T15:28:36.959Z,99688.17
2022-12-04T15:31:10.291Z,99685.77
2022-12-04T15:33:40.378Z,99681.21
2022-12-04T15:36:20.017Z,99680.91
2022-12-04T15:38:50.434Z,99674.34
2022-12-04T15:41:36.656Z,99674.80
2022-12-04T15:44:34.946Z,99670.48
2022-12-04T15:47:17.366Z,99669.69
2022-12-04T15:49:46.334Z,99671.82
2022-12-04T15:52:20.139Z,99669.33
2022-12-04T15:54:53.656Z,99670.06
2022-12-04T15:57:30.904Z,99672.73
2022-12-04T16:00:02.989Z,99679.27
2022-12-04T16:02:35.781Z,99683.90
2022-12-04T16:05:11.590Z,99688.99
2022-12-04T16:07:52.711Z,99690.12
2022-12-04T16:10:29.386Z,99690.02
2022-12-04T16:13:03.135Z,99683.50
2022-12-04T16:15:37.456Z,99679.83
2022-12-04T16:18:07.294Z,99680.91
2022-12-04T16:20:37.327Z,99677.51
2022-12-04T16:23:09.550Z,99680.02
2022-12-04T16:25:37.660Z,99680.13
2022-12-04T16:28:06.023Z,99684.59
2022-12-04T16:30:35.969Z,99686.84
2022-12-04T16:33:07.012Z,99683.70
2022-12-04T16:35:35.240Z,99678.19
2022-12-04T16:38:03.539Z,99675.62
2022-12-04T16:40:31.989Z,99670.46
2022-12-04T16:43:00.110Z,99670.33
2022-12-04T16:45:35.460Z,99670.15
2022-12-04T16:48:05.520Z,99678.16
2022-12-04T16:50:33.654Z,99681.92
2022-12-04T16:53:01.789Z,99679.58
2022-12-04T16:55:36.398Z,99676.93
2022-12-04T16:58:05.742Z,99676.49
2022-12-04T17:00:34.464Z,99681.52
2022-12-04T17:03:04.439Z,99686.35
2022-12-04T17:05:35.797Z,99676.88
2022-12-04T17:08:04.528Z,99674.17
2022-12-04T17:10:32.616Z,99678.38
2022-12-04T17:13:00.872Z,99677.02
2022-12-04T17:15:29.198Z,99683.38
2022-12-04T17:17:57.277Z,99683.57
2022-12-04T17:20:25.619Z,99689.80
2022-12-04T17:22:53.984Z,99689.72
2022-12-04T17:25:22.049Z,99689.81
2022-12-04T17:27:50.320Z,99687.70
2022-12-04T17:30:18.787Z,99689.89
2022-12-04T17:32:47.907Z,99693.25
2022-12-04T17:35:16.220Z,99696.08
2022-12-04T17:37:44.882Z,99697.27
2022-12-04T17:40:14.699Z,99698.58
2022-12-04T17:42:43.015Z,99702.45
2022-12-04T17:45:12.132Z,99696.97
2022-12-04T17:47:40.306Z,99697.52
2022-12-04T17:50:09.018Z,99700.29
2022-12-04T17:52:37.417Z,99698.64
2022-12-04T17:55:08.353Z,99695.71
2022-12-04T17:57:37.365Z,99695.88
2022-12-04T18:00:06.317Z,99694.54
2022-12-04T18:02:41.977Z,99703.26
2022-12-04T18:05:10.439Z,99701.90
2022-12-04T18:07:38.761Z,99699.04
2022-12-04T18:10:07.690Z,99695.42
2022-12-04T18:12:35.940Z,99688.39
2022-12-04T18:15:05.449Z,99685.51
2022-12-04T18:17:33.511Z,99673.66
2022-12-04T18:20:05.134Z,99670.55
2022-12-04T18:22:36.123Z,99666.88
2022-12-04T18:25:04.624Z,99666.73
2022-12-04T18:27:33.530Z,99670.00
2022-12-04T18:30:04.106Z,99682.02
2022-12-04T18:32:32.404Z,99686.18
2022-12-04T18:35:00.518Z,99679.75
2022-12-04T18:37:28.637Z,99669.98
2022-12-04T18:39:59.112Z,99668.79
2022-12-04T18:42:31.242Z,99673.68
2022-12-04T18:45:00.296Z,99680.38
2022-12-04T18:47:28.546Z,99686.98
2022-12-04T18:49:56.914Z,99690.27
2022-12-04T18:52:25.531Z,99693.17
2022-12-04T18:54:53.643Z,99693.25
2022-12-04T18:57:21.850Z,99692.19
2022-12-04T18:59:50.298Z,99692.35
2022-12-04T19:02:18.595Z,99693.85
2022-12-04T19:04:46.924Z,99696.88
2022-12-04T19:07:15.108Z,99690.11
2022-12-04T19:12:31.614Z,99693.74
2022-12-04T19:14:59.727Z,99696.28
2022-12-04T19:17:27.882Z,99704.02
2022-12-04T19:19:56.268Z,99706.67
2022-12-04T19:22:24.499Z,99702.35
2022-12-04T19:24:52.578Z,99698.94
2022-12-04T19:27:20.768Z,99695.13
2022-12-04T19:29:49.013Z,99692.36
2022-12-04T19:32:17.166Z,99699.46
2022-12-04T19:34:47.628Z,99695.75
2022-12-04T19:37:16.956Z,99695.65
2022-12-04T19:39:44.983Z,99700.12
2022-12-04T19:42:13.534Z,99699.11
2022-12-04T19:44:49.780Z,99704.40
2022-12-04T19:47:21.358Z,99701.97
2022-12-04T19:49:49.530Z,99704.42
2022-12-04T19:52:17.923Z,99699.36
2022-12-04T19:54:46.532Z,99702.36
2022-12-04T19:57:17.655Z,99705.51
2022-12-04T19:59:46.759Z,99692.30
2022-12-04T20:02:16.225Z,99692.70
2022-12-04T20:04:44.908Z,99699.89
2022-12-04T20:07:13.344Z,99698.48
2022-12-04T20:09:41.561Z,99698.02
2022-12-04T20:12:10.156Z,99696.08
2022-12-04T20:14:38.241Z,99701.26
2022-12-04T20:17:06.542Z,99701.50
2022-12-04T20:19:34.702Z,99703.89
2022-12-04T20:22:03.016Z,99705.29
2022-12-04T20:24:31.534Z,99701.62
2022-12-04T20:27:03.290Z,99703.23
2022-12-04T20:29:33.759Z,99705.08
2022-12-04T20:32:02.051Z,99697.90
2022-12-04T20:34:31.965Z,99696.44
2022-12-04T20:37:00.251Z,99688.52
2022-12-04T20:39:29.686Z,99686.33
2022-12-04T20:41:57.877Z,99690.05
2022-12-04T20:44:25.999Z,99693.06
2022-12-04T20:46:54.403Z,99686.92
2022-12-04T20:49:22.785Z,99682.17
2022-12-04T20:51:52.428Z,99683.02
2022-12-04T20:54:22.852Z,99690.39
2022-12-04T20:56:53.142Z,99690.52
2022-12-04T20:59:23.222Z,99687.52
2022-12-04T21:01:52.786Z,99681.61
2022-12-04T21:04:22.280Z,99682.23
2022-12-04T21:06:50.733Z,99683.39
2022-12-04T21:09:23.061Z,99677.52
2022-12-04T21:11:55.644Z,99674.16
2022-12-04T21:14:45.001Z,99678.14
2022-12-04T21:17:18.556Z,99687.83
2022-12-04T21:19:50.157Z,99691.66
2022-12-04T21:22:19.194Z,99695.86
2022-12-04T21:24:47.516Z,99695.13
2022-12-04T21:27:20.779Z,99695.20
2022-12-04T21:29:50.262Z,99694.23
2022-12-04T21:32:19.518Z,99692.09
2022-12-04T21:34:50.293Z,99698.76
2022-12-04T21:37:18.835Z,99699.67
2022-12-04T21:39:46.953Z,99699.54
2022-12-04T21:42:33.412Z,99698.94
2022-12-04T21:45:06.015Z,99688.55
2022-12-04T21:47:36.221Z,99686.14
2022-12-04T21:50:05.871Z,99680.08
2022-12-04T21:52:33.982Z,99672.84
2022-12-04T21:55:02.118Z,99666.91
2022-12-04T21:57:30.328Z,99661.60
2022-12-04T21:59:58.672Z,99664.95
2022-12-04T22:02:27.349Z,99670.42
2022-12-04T22:04:55.949Z,99671.14
2022-12-04T22:07:24.072Z,99675.08
2022-12-04T22:09:53.135Z,99675.89
2022-12-04T22:15:10.121Z,99672.04
2022-12-04T22:17:38.327Z,99665.15
2022-12-04T22:20:07.329Z,99664.77
2022-12-04T22:22:35.646Z,99664.57
2022-12-04T22:25:04.066Z,99661.43
2022-12-04T22:27:35.912Z,99658.70
2022-12-04T22:30:05.503Z,99652.94
2022-12-04T22:32:34.005Z,99650.48
2022-12-04T22:35:02.496Z,99651.39
2022-12-04T22:37:30.924Z,99653.52
2022-12-04T22:39:59.479Z,99650.38
2022-12-04T22:42:27.866Z,99648.10
2022-12-04T22:44:56.144Z,99646.77
2022-12-04T22:47:24.348Z,99643.69
2022-12-04T22:49:52.464Z,99652.38
2022-12-04T22:52:20.679Z,99659.20
2022-12-04T22:54:52.022Z,99655.45
2022-12-04T22:57:20.070Z,99650.96
2022-12-04T22:59:48.262Z,99649.98
2022-12-04T23:02:16.545Z,99652.87
2022-12-04T23:04:45.218Z,99649.34
2022-12-04T23:07:13.285Z,99647.40
2022-12-04T23:09:41.713Z,99646.48
2022-12-04T23:12:10.211Z,99642.25
2022-12-04T23:14:38.574Z,99642.75
2022-12-04T23:17:07.167Z,99650.02
2022-12-04T23:19:35.439Z,99645.84
2022-12-04T23:22:03.541Z,99639.84
2022-12-04T23:24:33.414Z,99637.26
2022-12-04T23:27:01.499Z,99641.48
2022-12-04T23:29:52.271Z,99642.03
2022-12-04T23:32:18.650Z,99639.53
2022-12-04T23:34:46.851Z,99635.21
2022-12-04T23:37:14.989Z,99631.61
2022-12-04T23:39:43.333Z,99633.88
2022-12-04T23:42:11.660Z,99634.84
2022-12-04T23:44:39.815Z,99639.80
2022-12-04T23:47:08.041Z,99640.16
2022-12-04T23:49:36.325Z,99644.66
2022-12-04T23:52:04.717Z,99635.67
2022-12-04T23:54:36.012Z,99637.20
2022-12-04T23:57:05.926Z,99636.64
2022-12-04T23:59:34.346Z,99636.23
